Time;durP1;ratioP1;P1;durP2;ratioP2;P2;SDS_P1;SDS_P2;PMS_P1;PMS_P2;Temp;Humidity;BMP_temperature;BMP_pressure;BME280_temperature;BME280_humidity;BME280_pressure;Samples;Min_cycle;Max_cycle;Signal;HPM_P1;HPM_P2
2021/04/14 00:00:43;;;;;;;6.27;3.57;;;;;;;;;;5118526;28;20599;-72
2021/04/14 00:03:47;;;;;;;8.43;4.10;;;;;;;;;;5117073;28;20643;-72
2021/04/14 00:07:10;;;;;;;5.50;3.70;;;;;;;;;;5118438;28;20544;-72
2021/04/14 00:10:19;;;;;;;3.73;3.37;;;;;;;;;;5118075;28;21066;-72
2021/04/14 00:13:30;;;;;;;4.47;3.50;;;;;;;;;;5117989;28;20580;-72
2021/04/14 00:16:35;;;;;;;5.10;3.40;;;;;;;;;;5118282;28;20536;-72
2021/04/14 00:19:39;;;;;;;5.23;3.27;;;;;;;;;;5098078;28;20537;-72
2021/04/14 00:22:43;;;;;;;5.43;3.73;;;;;;;;;;5112125;28;20588;-72
2021/04/14 00:25:50;;;;;;;3.50;3.07;;;;;;;;;;5117746;28;20615;-72
2021/04/14 00:28:56;;;;;;;6.07;3.60;;;;;;;;;;5117049;28;20549;-72
2021/04/14 00:32:00;;;;;;;6.27;3.40;;;;;;;;;;5117285;28;20592;-72
2021/04/14 00:35:06;;;;;;;4.27;3.30;;;;;;;;;;5115951;28;20986;-72
2021/04/14 00:38:13;;;;;;;7.03;3.80;;;;;;;;;;5116314;28;20856;-72
2021/04/14 00:41:17;;;;;;;6.07;4.07;;;;;;;;;;5096052;28;20588;-72
2021/04/14 00:44:22;;;;;;;7.47;4.43;;;;;;;;;;5095116;28;20652;-72
2021/04/14 00:47:26;;;;;;;5.70;4.07;;;;;;;;;;5095152;28;20955;-72
2021/04/14 00:50:30;;;;;;;9.33;5.63;;;;;;;;;;5095383;28;20541;-72
2021/04/14 00:53:34;;;;;;;7.77;5.20;;;;;;;;;;5098992;28;20644;-72
2021/04/14 00:56:39;;;;;;;5.70;3.67;;;;;;;;;;5114359;28;20584;-72
2021/04/14 00:59:43;;;;;;;4.97;3.53;;;;;;;;;;5115608;28;20533;-72
2021/04/14 01:02:47;;;;;;;6.47;3.50;;;;;;;;;;5114819;28;20564;-72
2021/04/14 01:05:55;;;;;;;7.03;3.70;;;;;;;;;;5102845;28;21129;-72
2021/04/14 01:08:59;;;;;;;7.63;3.77;;;;;;;;;;5113850;28;20592;-72
2021/04/14 01:12:04;;;;;;;5.10;3.70;;;;;;;;;;5107621;28;20918;-72
2021/04/14 01:15:13;;;;;;;5.37;3.27;;;;;;;;;;5115201;28;20612;-72
2021/04/14 01:18:21;;;;;;;4.67;3.20;;;;;;;;;;5114874;28;20915;-72
2021/04/14 01:21:40;;;;;;;4.10;3.10;;;;;;;;;;5115097;28;20592;-72
2021/04/14 01:24:57;;;;;;;4.87;3.13;;;;;;;;;;5094367;28;20648;-72
2021/04/14 01:28:07;;;;;;;6.27;2.87;;;;;;;;;;5094949;28;20533;-72
2021/04/14 01:31:14;;;;;;;5.00;2.60;;;;;;;;;;5105529;28;20592;-72
2021/04/14 01:34:19;;;;;;;4.07;3.30;;;;;;;;;;5114861;28;20607;-72
2021/04/14 01:37:23;;;;;;;5.23;3.03;;;;;;;;;;5114631;28;20584;-72
2021/04/14 01:40:28;;;;;;;4.33;3.13;;;;;;;;;;5114020;28;20536;-72
2021/04/14 01:43:33;;;;;;;4.07;2.70;;;;;;;;;;5114161;28;20655;-72
2021/04/14 01:46:42;;;;;;;4.87;2.80;;;;;;;;;;5113763;28;20588;-72
2021/04/14 01:49:46;;;;;;;4.17;3.00;;;;;;;;;;5114620;28;20536;-72
2021/04/14 01:52:51;;;;;;;3.47;2.53;;;;;;;;;;5114242;28;20624;-72
2021/04/14 01:55:55;;;;;;;4.83;2.60;;;;;;;;;;5094525;28;20538;-72
2021/04/14 01:58:59;;;;;;;4.00;3.00;;;;;;;;;;5101512;28;20587;-72
2021/04/14 02:02:04;;;;;;;4.97;3.30;;;;;;;;;;5112926;28;20580;-72
2021/04/14 02:05:09;;;;;;;5.23;3.33;;;;;;;;;;5113881;28;20647;-72
2021/04/14 02:08:14;;;;;;;4.07;2.87;;;;;;;;;;5113413;28;20540;-72
2021/04/14 02:11:18;;;;;;;5.83;3.30;;;;;;;;;;5094326;28;20589;-72
2021/04/14 02:14:23;;;;;;;3.83;2.77;;;;;;;;;;5113539;28;20619;-72
2021/04/14 02:17:27;;;;;;;4.63;3.20;;;;;;;;;;5114121;28;20553;-72
2021/04/14 02:20:33;;;;;;;4.17;2.93;;;;;;;;;;5113828;28;20536;-72
2021/04/14 02:23:41;;;;;;;3.83;2.80;;;;;;;;;;5112630;28;20643;-72
2021/04/14 02:26:45;;;;;;;3.93;3.03;;;;;;;;;;5112877;28;20588;-72
2021/04/14 02:29:49;;;;;;;5.67;3.07;;;;;;;;;;5113409;28;21141;-72
2021/04/14 02:32:54;;;;;;;7.23;3.60;;;;;;;;;;5114066;28;20553;-72
2021/04/14 02:35:58;;;;;;;6.70;3.47;;;;;;;;;;5113468;28;20580;-72
2021/04/14 02:39:03;;;;;;;4.77;3.20;;;;;;;;;;5113284;28;20584;-72
2021/04/14 02:42:08;;;;;;;7.03;3.47;;;;;;;;;;5113076;28;21153;-72
2021/04/14 02:45:14;;;;;;;5.80;2.97;;;;;;;;;;5113096;28;21225;-72
2021/04/14 02:48:18;;;;;;;4.63;3.10;;;;;;;;;;5113883;28;20553;-72
2021/04/14 02:51:30;;;;;;;4.67;3.07;;;;;;;;;;5113104;28;20612;-72
2021/04/14 02:54:34;;;;;;;5.33;3.40;;;;;;;;;;5113141;28;20647;-72
2021/04/14 02:57:54;;;;;;;5.90;3.23;;;;;;;;;;5113292;28;20584;-72
2021/04/14 03:00:58;;;;;;;7.37;2.83;;;;;;;;;;4991201;28;20641;-70
2021/04/14 03:04:02;;;;;;;4.53;3.03;;;;;;;;;;4992904;28;20636;-71
2021/04/14 03:07:07;;;;;;;5.93;2.90;;;;;;;;;;4994059;28;21072;-70
2021/04/14 03:10:12;;;;;;;6.27;3.00;;;;;;;;;;4982369;28;20545;-70
2021/04/14 03:13:26;;;;;;;5.97;2.67;;;;;;;;;;4954100;28;20658;-70
2021/04/14 03:16:30;;;;;;;5.63;2.83;;;;;;;;;;4974252;28;20582;-70
2021/04/14 03:19:34;;;;;;;5.00;2.57;;;;;;;;;;4976476;28;20602;-71
2021/04/14 03:22:39;;;;;;;4.43;3.00;;;;;;;;;;4993909;28;20605;-70
2021/04/14 03:25:43;;;;;;;7.90;2.70;;;;;;;;;;4987086;28;20638;-70
2021/04/14 03:28:48;;;;;;;7.27;2.77;;;;;;;;;;4978790;28;20581;-70
2021/04/14 03:31:52;;;;;;;4.77;2.43;;;;;;;;;;4987025;28;20589;-70
2021/04/14 03:34:56;;;;;;;3.60;2.57;;;;;;;;;;4985219;28;20620;-70
2021/04/14 03:38:01;;;;;;;2.90;2.37;;;;;;;;;;4987355;28;20590;-70
2021/04/14 03:41:05;;;;;;;7.27;2.70;;;;;;;;;;4969856;28;20624;-70
2021/04/14 03:44:09;;;;;;;3.70;2.87;;;;;;;;;;4965229;28;20622;-70
2021/04/14 03:47:13;;;;;;;3.43;2.70;;;;;;;;;;4979610;28;20586;-70
2021/04/14 03:50:18;;;;;;;3.33;2.77;;;;;;;;;;4982573;28;20601;-70
2021/04/14 03:53:27;;;;;;;4.90;2.80;;;;;;;;;;4994197;28;20597;-70
2021/04/14 03:56:32;;;;;;;3.67;2.70;;;;;;;;;;4983203;28;20598;-70
2021/04/14 03:59:36;;;;;;;3.57;2.57;;;;;;;;;;4975702;28;21178;-70
2021/04/14 04:02:41;;;;;;;2.90;2.47;;;;;;;;;;4996609;28;20600;-70
2021/04/14 04:05:46;;;;;;;4.47;2.70;;;;;;;;;;4995699;28;20589;-70
2021/04/14 04:08:51;;;;;;;5.30;2.73;;;;;;;;;;4996630;28;20546;-70
2021/04/14 04:11:55;;;;;;;4.37;2.47;;;;;;;;;;4978522;28;20586;-70
2021/04/14 04:14:59;;;;;;;4.47;2.93;;;;;;;;;;4994907;28;20640;-70
2021/04/14 04:18:05;;;;;;;3.53;2.60;;;;;;;;;;4996147;28;20545;-70
2021/04/14 04:21:10;;;;;;;4.13;2.90;;;;;;;;;;4985658;28;20589;-70
2021/04/14 04:24:14;;;;;;;3.77;2.80;;;;;;;;;;4987229;28;20626;-70
2021/04/14 04:27:19;;;;;;;4.07;3.20;;;;;;;;;;4976727;28;20602;-71
2021/04/14 04:30:24;;;;;;;5.93;3.20;;;;;;;;;;4978281;28;20539;-71
2021/04/14 04:33:28;;;;;;;5.67;3.23;;;;;;;;;;4996039;28;20980;-70
2021/04/14 04:36:32;;;;;;;6.23;3.27;;;;;;;;;;4976830;28;20582;-70
2021/04/14 04:39:36;;;;;;;5.50;2.73;;;;;;;;;;4977125;28;21077;-71
2021/04/14 04:43:30;;;;;;;5.60;3.20;;;;;;;;;;4976067;28;20554;-70
2021/04/14 04:46:48;;;;;;;5.03;2.77;;;;;;;;;;4993004;28;20657;-70
2021/04/14 04:49:52;;;;;;;9.07;2.80;;;;;;;;;;4984528;28;20942;-70
2021/04/14 04:53:00;;;;;;;6.40;3.00;;;;;;;;;;4975584;28;20538;-71
2021/04/14 04:56:05;;;;;;;5.43;3.03;;;;;;;;;;4975876;28;20605;-70
2021/04/14 04:59:09;;;;;;;3.90;2.80;;;;;;;;;;4974459;28;20621;-70
2021/04/14 05:02:13;;;;;;;5.83;3.07;;;;;;;;;;4989076;28;20621;-70
2021/04/14 05:05:20;;;;;;;6.37;3.03;;;;;;;;;;4976856;28;20650;-70
2021/04/14 05:08:25;;;;;;;5.13;3.27;;;;;;;;;;4992695;28;20589;-70
2021/04/14 05:11:29;;;;;;;3.93;2.70;;;;;;;;;;4981050;28;20617;-71
2021/04/14 05:14:33;;;;;;;4.53;2.90;;;;;;;;;;4984829;28;20653;-70
2021/04/14 05:17:37;;;;;;;11.77;3.43;;;;;;;;;;4994637;28;20545;-70
2021/04/14 05:20:42;;;;;;;4.77;2.93;;;;;;;;;;4979944;28;20626;-72
2021/04/14 05:24:00;;;;;;;8.40;3.00;;;;;;;;;;4976018;28;20629;-70
2021/04/14 05:27:05;;;;;;;3.40;2.60;;;;;;;;;;4983556;28;20625;-70
2021/04/14 05:30:12;;;;;;;6.57;3.20;;;;;;;;;;4993932;28;21147;-70
2021/04/14 05:33:17;;;;;;;5.43;3.40;;;;;;;;;;4994787;28;20558;-70
2021/04/14 05:36:27;;;;;;;5.57;3.40;;;;;;;;;;4992358;28;20597;-70
2021/04/14 05:39:31;;;;;;;4.73;3.43;;;;;;;;;;4994596;28;21127;-72
2021/04/14 05:42:40;;;;;;;6.33;4.00;;;;;;;;;;4994602;28;20553;-73
2021/04/14 05:45:45;;;;;;;7.57;4.07;;;;;;;;;;4994879;28;20602;-73
2021/04/14 05:48:59;;;;;;;7.70;4.30;;;;;;;;;;4994801;28;20558;-73
2021/04/14 05:52:12;;;;;;;8.63;4.47;;;;;;;;;;4994724;28;20968;-72
2021/04/14 05:55:21;;;;;;;5.93;3.80;;;;;;;;;;4994107;28;20645;-73
2021/04/14 05:58:44;;;;;;;6.83;4.00;;;;;;;;;;4987505;28;20993;-73
2021/04/14 06:01:49;;;;;;;5.80;3.60;;;;;;;;;;4975151;28;20554;-73
2021/04/14 06:04:53;;;;;;;7.37;3.90;;;;;;;;;;4963499;28;21181;-73
2021/04/14 06:07:59;;;;;;;7.60;3.80;;;;;;;;;;4974899;28;20535;-73
2021/04/14 06:11:03;;;;;;;4.83;3.30;;;;;;;;;;4974700;28;20539;-73
2021/04/14 06:14:08;;;;;;;5.80;3.30;;;;;;;;;;4974699;28;20621;-71
2021/04/14 06:17:12;;;;;;;4.57;3.30;;;;;;;;;;4975370;28;20543;-71
2021/04/14 06:20:19;;;;;;;15.83;3.73;;;;;;;;;;4974829;28;20542;-71
2021/04/14 06:23:23;;;;;;;4.27;3.23;;;;;;;;;;4974996;28;20543;-71
2021/04/14 06:26:35;;;;;;;4.80;3.57;;;;;;;;;;4951483;28;20653;-71
2021/04/14 06:29:39;;;;;;;7.40;2.90;;;;;;;;;;4963030;28;20546;-71
2021/04/14 06:32:44;;;;;;;5.60;2.90;;;;;;;;;;4974450;28;20593;-71
2021/04/14 06:35:49;;;;;;;5.07;2.90;;;;;;;;;;4962979;28;20538;-71
2021/04/14 06:39:04;;;;;;;4.90;3.20;;;;;;;;;;4974633;28;20543;-71
2021/04/14 06:42:24;;;;;;;5.70;3.57;;;;;;;;;;4962492;28;20554;-71
2021/04/14 06:45:38;;;;;;;5.73;3.37;;;;;;;;;;4974216;28;20614;-71
2021/04/14 06:49:02;;;;;;;7.23;3.10;;;;;;;;;;4962323;28;21167;-71
2021/04/14 06:52:27;;;;;;;6.37;3.07;;;;;;;;;;4974388;28;20547;-71
2021/04/14 06:55:43;;;;;;;4.70;2.77;;;;;;;;;;4961984;28;20551;-72
2021/04/14 06:59:00;;;;;;;5.40;3.37;;;;;;;;;;4984465;28;20616;-71
2021/04/14 07:02:08;;;;;;;8.20;3.07;;;;;;;;;;5013406;28;20555;-71
2021/04/14 07:05:19;;;;;;;8.23;3.00;;;;;;;;;;5013609;28;21202;-71
2021/04/14 07:08:31;;;;;;;6.20;3.13;;;;;;;;;;5017346;28;20533;-71
2021/04/14 07:11:36;;;;;;;5.13;2.83;;;;;;;;;;5017343;28;21118;-71
2021/04/14 07:14:40;;;;;;;5.47;2.63;;;;;;;;;;5015786;28;20624;-71
2021/04/14 07:18:02;;;;;;;3.53;2.50;;;;;;;;;;4997572;28;20549;-71
2021/04/14 07:21:25;;;;;;;6.83;3.10;;;;;;;;;;4997191;28;20596;-71
2021/04/14 07:24:36;;;;;;;7.07;2.97;;;;;;;;;;4997226;28;20629;-71
2021/04/14 07:27:48;;;;;;;6.20;3.40;;;;;;;;;;4993872;28;20648;-71
2021/04/14 07:31:09;;;;;;;4.07;2.57;;;;;;;;;;4997337;28;20542;-71
2021/04/14 07:34:38;;;;;;;6.03;3.00;;;;;;;;;;4996898;28;21210;-71
2021/04/14 07:37:49;;;;;;;3.93;2.80;;;;;;;;;;4996414;28;20537;-71
2021/04/14 07:41:01;;;;;;;6.67;2.93;;;;;;;;;;4976823;28;20602;-72
2021/04/14 07:44:25;;;;;;;11.43;2.73;;;;;;;;;;4992630;28;21035;-71
2021/04/14 07:47:34;;;;;;;4.43;2.40;;;;;;;;;;4987771;28;21215;-71
2021/04/14 07:50:43;;;;;;;13.70;2.57;;;;;;;;;;4994675;28;20970;-72
2021/04/14 07:54:18;;;;;;;4.60;2.83;;;;;;;;;;4989443;28;20230;-71
2021/04/14 07:57:33;;;;;;;4.43;2.90;;;;;;;;;;4973671;28;20581;-71
2021/04/14 08:00:41;;;;;;;3.60;2.50;;;;;;;;;;4965355;28;20551;-71
2021/04/14 08:04:10;;;;;;;6.83;2.80;;;;;;;;;;4971054;28;20226;-72
2021/04/14 08:07:22;;;;;;;3.03;2.20;;;;;;;;;;4961502;28;20214;-71
2021/04/14 08:10:29;;;;;;;5.67;2.83;;;;;;;;;;4976769;28;20677;-71
2021/04/14 08:13:39;;;;;;;4.87;3.07;;;;;;;;;;4957410;28;20226;-71
2021/04/14 08:16:48;;;;;;;4.10;2.50;;;;;;;;;;4968057;28;20195;-71
2021/04/14 08:20:00;;;;;;;4.10;2.43;;;;;;;;;;4950122;29;20199;-71
2021/04/14 08:23:21;;;;;;;6.30;2.50;;;;;;;;;;4963836;28;20194;-71
2021/04/14 08:26:26;;;;;;;7.93;2.50;;;;;;;;;;4967134;28;20211;-71
2021/04/14 08:29:30;;;;;;;3.67;2.77;;;;;;;;;;4953854;28;20183;-71
2021/04/14 08:32:55;;;;;;;7.37;2.53;;;;;;;;;;4974895;28;20183;-71
2021/04/14 08:36:28;;;;;;;4.27;2.23;;;;;;;;;;4952481;29;20180;-72
2021/04/14 08:39:49;;;;;;;6.73;2.67;;;;;;;;;;4953306;29;20184;-71
2021/04/14 08:42:54;;;;;;;4.10;2.80;;;;;;;;;;4955399;28;20547;-72
2021/04/14 08:46:37;;;;;;;3.60;2.40;;;;;;;;;;4972441;28;20194;-72
2021/04/14 08:49:44;;;;;;;6.13;2.53;;;;;;;;;;4972060;28;20670;-72
2021/04/14 08:52:51;;;;;;;8.40;2.37;;;;;;;;;;4972388;28;20546;-72
2021/04/14 08:55:55;;;;;;;6.77;2.73;;;;;;;;;;4964016;28;20408;-72
2021/04/14 08:59:00;;;;;;;5.70;2.50;;;;;;;;;;4954018;28;20215;-72
2021/04/14 09:02:07;;;;;;;3.77;2.00;;;;;;;;;;4951913;28;20852;-71
2021/04/14 09:05:21;;;;;;;5.23;2.30;;;;;;;;;;4969324;28;20757;-72
2021/04/14 09:08:30;;;;;;;5.60;2.17;;;;;;;;;;4972183;28;20230;-71
2021/04/14 09:11:36;;;;;;;4.83;2.20;;;;;;;;;;4960449;28;20226;-71
2021/04/14 09:14:40;;;;;;;3.83;1.67;;;;;;;;;;4971995;28;20567;-71
2021/04/14 09:18:02;;;;;;;3.93;1.73;;;;;;;;;;4972270;28;20183;-71
2021/04/14 09:21:15;;;;;;;4.40;1.80;;;;;;;;;;4960221;28;20190;-71
2021/04/14 09:24:46;;;;;;;4.07;2.07;;;;;;;;;;4972233;28;20709;-71
2021/04/14 09:27:51;;;;;;;5.10;2.37;;;;;;;;;;4962675;28;20215;-71
2021/04/14 09:31:15;;;;;;;3.23;1.97;;;;;;;;;;4975290;28;20199;-71
2021/04/14 09:34:22;;;;;;;5.13;2.80;;;;;;;;;;4975230;28;20219;-71
2021/04/14 09:37:31;;;;;;;3.60;1.90;;;;;;;;;;4975405;28;20179;-71
2021/04/14 09:40:37;;;;;;;4.60;1.73;;;;;;;;;;4974599;28;20199;-71
2021/04/14 09:43:45;;;;;;;6.80;1.90;;;;;;;;;;4985658;28;20559;-71
2021/04/14 09:46:56;;;;;;;3.80;1.30;;;;;;;;;;4958889;28;20198;-71
2021/04/14 09:50:13;;;;;;;3.17;1.70;;;;;;;;;;4935739;28;20180;-72
2021/04/14 09:53:38;;;;;;;7.63;1.83;;;;;;;;;;4975101;28;20519;-71
2021/04/14 09:56:49;;;;;;;3.00;1.77;;;;;;;;;;4962754;28;20194;-71
2021/04/14 09:59:54;;;;;;;4.10;1.80;;;;;;;;;;4974619;28;20206;-70
2021/04/14 10:03:09;;;;;;;6.07;1.93;;;;;;;;;;4962950;28;20179;-71
2021/04/14 10:06:19;;;;;;;3.30;1.63;;;;;;;;;;4974917;28;20179;-71
2021/04/14 10:09:29;;;;;;;4.13;1.90;;;;;;;;;;4974838;28;20179;-71
2021/04/14 10:12:33;;;;;;;4.00;1.80;;;;;;;;;;4962815;28;20690;-71
2021/04/14 10:15:40;;;;;;;5.90;2.47;;;;;;;;;;4974563;28;20195;-71
2021/04/14 10:18:44;;;;;;;6.87;2.97;;;;;;;;;;4974453;28;20198;-71
2021/04/14 10:21:48;;;;;;;4.57;2.30;;;;;;;;;;4955147;28;20187;-71
2021/04/14 10:25:06;;;;;;;6.73;2.20;;;;;;;;;;4963120;28;20224;-71
2021/04/14 10:28:30;;;;;;;2.33;1.83;;;;;;;;;;4957401;28;20594;-71
2021/04/14 10:31:37;;;;;;;8.03;6.17;;;;;;;;;;4949770;28;20663;-71
2021/04/14 10:34:41;;;;;;;7.20;4.17;;;;;;;;;;4960212;28;20226;-71
2021/04/14 10:37:48;;;;;;;3.83;2.87;;;;;;;;;;4962476;23;20580;-71
2021/04/14 10:40:52;;;;;;;5.33;3.97;;;;;;;;;;5031842;28;20212;-71
2021/04/14 10:43:58;;;;;;;19.27;10.70;;;;;;;;;;5032424;28;20220;-71
2021/04/14 10:47:16;;;;;;;5.07;4.07;;;;;;;;;;5028298;28;20200;-71
2021/04/14 10:50:28;;;;;;;3.20;2.90;;;;;;;;;;5020512;28;20633;-71
2021/04/14 10:53:40;;;;;;;18.07;10.73;;;;;;;;;;5009700;28;20213;-72
2021/04/14 10:56:44;;;;;;;6.07;3.80;;;;;;;;;;5021282;28;20197;-71
2021/04/14 10:59:49;;;;;;;2.33;1.50;;;;;;;;;;5029226;28;20201;-71
2021/04/14 11:02:53;;;;;;;26.73;15.43;;;;;;;;;;5028440;28;20188;-72
2021/04/14 11:05:58;;;;;;;4.70;2.43;;;;;;;;;;5029129;28;20192;-71
2021/04/14 11:09:04;;;;;;;3.77;1.63;;;;;;;;;;5029006;28;20543;-71
2021/04/14 11:12:12;;;;;;;3.00;2.63;;;;;;;;;;5028524;28;20189;-71
2021/04/14 11:15:23;;;;;;;3.43;3.10;;;;;;;;;;5028434;28;20225;-71
2021/04/14 11:18:36;;;;;;;1.60;1.50;;;;;;;;;;5014317;28;20184;-71
2021/04/14 11:21:41;;;;;;;2.70;1.83;;;;;;;;;;5028919;28;20181;-72
2021/04/14 11:24:48;;;;;;;2.17;1.90;;;;;;;;;;5029205;28;20213;-71
2021/04/14 11:28:13;;;;;;;40.17;19.60;;;;;;;;;;5028984;28;20209;-71
2021/04/14 11:31:26;;;;;;;3.93;1.90;;;;;;;;;;5028691;28;20548;-71
2021/04/14 11:34:34;;;;;;;1.80;1.43;;;;;;;;;;5027884;28;20217;-71
2021/04/14 11:37:49;;;;;;;1.90;1.50;;;;;;;;;;5027609;28;20188;-71
2021/04/14 11:40:59;;;;;;;2.03;1.10;;;;;;;;;;5027305;28;20205;-71
2021/04/14 11:44:15;;;;;;;1.70;0.97;;;;;;;;;;5026448;28;20216;-71
2021/04/14 11:47:21;;;;;;;1.97;1.23;;;;;;;;;;5027850;28;20243;-71
2021/04/14 11:50:32;;;;;;;3.80;1.40;;;;;;;;;;5028732;28;20201;-71
2021/04/14 11:53:48;;;;;;;2.60;1.23;;;;;;;;;;5031621;28;20220;-71
2021/04/14 11:57:00;;;;;;;3.37;1.10;;;;;;;;;;5031899;28;20185;-71
2021/04/14 12:00:08;;;;;;;2.03;1.33;;;;;;;;;;5032003;28;20192;-71
2021/04/14 12:03:18;;;;;;;2.93;1.30;;;;;;;;;;5012744;28;20182;-71
2021/04/14 12:06:23;;;;;;;1.43;1.10;;;;;;;;;;5012720;28;20185;-71
2021/04/14 12:09:27;;;;;;;1.40;1.20;;;;;;;;;;5025079;28;20216;-71
2021/04/14 12:12:32;;;;;;;1.93;1.10;;;;;;;;;;5031419;28;20567;-71
2021/04/14 12:15:36;;;;;;;2.63;1.00;;;;;;;;;;5032286;28;20173;-71
2021/04/14 12:18:41;;;;;;;1.40;1.20;;;;;;;;;;5032037;28;20714;-71
2021/04/14 12:21:55;;;;;;;1.57;1.07;;;;;;;;;;5031389;28;20193;-71
2021/04/14 12:25:00;;;;;;;2.33;1.30;;;;;;;;;;5032137;28;20590;-71
2021/04/14 12:28:05;;;;;;;2.20;1.30;;;;;;;;;;5031807;28;20273;-71
2021/04/14 12:31:17;;;;;;;7.13;1.27;;;;;;;;;;5031860;28;20205;-72
2021/04/14 12:34:30;;;;;;;1.57;1.40;;;;;;;;;;5022637;28;20216;-71
2021/04/14 12:37:34;;;;;;;4.40;1.40;;;;;;;;;;5031457;28;20185;-71
2021/04/14 12:40:38;;;;;;;8.70;5.00;;;;;;;;;;5030822;28;20184;-71
2021/04/14 12:43:58;;;;;;;2.70;1.50;;;;;;;;;;5031673;28;20224;-71
2021/04/14 12:47:14;;;;;;;2.40;1.40;;;;;;;;;;5031141;28;20196;-71
2021/04/14 12:50:18;;;;;;;3.17;1.40;;;;;;;;;;5037804;28;20181;-71
2021/04/14 12:53:23;;;;;;;11.47;2.90;;;;;;;;;;5030527;28;20197;-71
2021/04/14 12:56:30;;;;;;;5.77;2.30;;;;;;;;;;5031302;28;20197;-71
2021/04/14 12:59:41;;;;;;;8.40;4.03;;;;;;;;;;5034120;28;20177;-72
2021/04/14 13:03:19;;;;;;;4.77;1.90;;;;;;;;;;5033811;28;20185;-71
2021/04/14 13:06:36;;;;;;;5.27;1.83;;;;;;;;;;5034141;28;20533;-72
2021/04/14 13:09:41;;;;;;;3.63;1.50;;;;;;;;;;5034128;28;20664;-72
2021/04/14 13:12:45;;;;;;;4.03;2.00;;;;;;;;;;5033988;28;20185;-71
2021/04/14 13:15:57;;;;;;;3.13;1.67;;;;;;;;;;5031483;28;20180;-73
2021/04/14 13:19:14;;;;;;;3.53;1.57;;;;;;;;;;5034450;28;20624;-71
2021/04/14 13:22:38;;;;;;;3.03;1.70;;;;;;;;;;5033640;28;20184;-71
2021/04/14 13:25:52;;;;;;;3.27;2.20;;;;;;;;;;5033642;28;20632;-73
2021/04/14 13:29:24;;;;;;;3.57;1.70;;;;;;;;;;5033742;28;20197;-70
2021/04/14 13:32:35;;;;;;;4.90;2.70;;;;;;;;;;5034258;28;20189;-73
2021/04/14 13:35:53;;;;;;;4.43;1.70;;;;;;;;;;5034480;28;20181;-73
2021/04/14 13:39:01;;;;;;;3.20;1.77;;;;;;;;;;5034162;28;20208;-73
2021/04/14 13:42:12;;;;;;;5.37;2.97;;;;;;;;;;5034066;28;20201;-72
2021/04/14 13:45:23;;;;;;;3.67;1.63;;;;;;;;;;5033890;28;20225;-73
2021/04/14 13:48:47;;;;;;;3.87;1.97;;;;;;;;;;5033852;28;20208;-72
2021/04/14 13:52:09;;;;;;;2.57;2.00;;;;;;;;;;5034427;28;20521;-72
2021/04/14 13:55:13;;;;;;;4.27;2.20;;;;;;;;;;5021533;28;20219;-72
2021/04/14 13:58:23;;;;;;;2.17;1.50;;;;;;;;;;5033706;28;20173;-71
2021/04/14 14:01:33;;;;;;;2.80;1.50;;;;;;;;;;5021539;28;20529;-71
2021/04/14 14:04:37;;;;;;;35.60;5.03;;;;;;;;;;5021514;28;20220;-71
2021/04/14 14:07:47;;;;;;;12.13;2.87;;;;;;;;;;5021766;28;20180;-71
2021/04/14 14:11:29;;;;;;;3.43;1.73;;;;;;;;;;5033853;28;20169;-71
2021/04/14 14:14:34;;;;;;;5.30;1.80;;;;;;;;;;5020876;28;20691;-72
2021/04/14 14:17:45;;;;;;;5.13;1.53;;;;;;;;;;5033408;28;20188;-72
2021/04/14 14:20:50;;;;;;;4.00;1.60;;;;;;;;;;5033897;28;20193;-72
2021/04/14 14:23:54;;;;;;;2.10;1.70;;;;;;;;;;5008149;28;20208;-72
2021/04/14 14:27:07;;;;;;;2.27;1.87;;;;;;;;;;5021781;28;20659;-72
2021/04/14 14:30:12;;;;;;;3.27;2.07;;;;;;;;;;5029412;28;20208;-72
2021/04/14 14:33:17;;;;;;;8.67;2.83;;;;;;;;;;5025063;28;20200;-71
2021/04/14 14:36:38;;;;;;;8.53;5.40;;;;;;;;;;4993802;28;20201;-72
2021/04/14 14:39:51;;;;;;;4.23;2.83;;;;;;;;;;5022422;28;20200;-71
2021/04/14 14:43:09;;;;;;;4.77;2.17;;;;;;;;;;5029215;28;20647;-71
2021/04/14 14:46:21;;;;;;;3.67;1.80;;;;;;;;;;5029557;28;20180;-72
2021/04/14 14:49:33;;;;;;;2.80;1.80;;;;;;;;;;5028547;28;20209;-72
2021/04/14 14:52:41;;;;;;;3.57;1.90;;;;;;;;;;5029056;28;20177;-71
2021/04/14 14:55:46;;;;;;;2.20;1.83;;;;;;;;;;5028419;28;20547;-72
2021/04/14 14:58:51;;;;;;;14.17;3.57;;;;;;;;;;5029045;28;20185;-72
2021/04/14 15:01:57;;;;;;;9.27;3.77;;;;;;;;;;5029120;28;20540;-72
2021/04/14 15:05:03;;;;;;;6.63;3.20;;;;;;;;;;5028768;28;20224;-72
2021/04/14 15:08:07;;;;;;;5.93;3.23;;;;;;;;;;5029197;28;20544;-72
2021/04/14 15:11:11;;;;;;;4.70;2.33;;;;;;;;;;5039220;28;20181;-72
2021/04/14 15:14:17;;;;;;;2.60;1.73;;;;;;;;;;5017527;28;20216;-72
2021/04/14 15:17:22;;;;;;;4.23;2.13;;;;;;;;;;5027567;28;20204;-72
2021/04/14 15:20:27;;;;;;;5.80;2.03;;;;;;;;;;5027883;28;20189;-72
2021/04/14 15:23:35;;;;;;;1.97;1.57;;;;;;;;;;5027832;28;20216;-72
2021/04/14 15:26:40;;;;;;;3.53;1.70;;;;;;;;;;5029832;28;20204;-72
2021/04/14 15:29:44;;;;;;;4.87;2.73;;;;;;;;;;5031596;28;20209;-72
2021/04/14 15:32:49;;;;;;;4.13;2.03;;;;;;;;;;5032363;28;20690;-72
2021/04/14 15:35:53;;;;;;;4.73;1.70;;;;;;;;;;5032624;28;20196;-71
2021/04/14 15:38:58;;;;;;;3.23;1.70;;;;;;;;;;5032538;28;20205;-71
2021/04/14 15:42:03;;;;;;;2.57;1.30;;;;;;;;;;5032555;28;20177;-71
2021/04/14 15:45:07;;;;;;;4.40;1.73;;;;;;;;;;4993301;28;20218;-71
2021/04/14 15:48:11;;;;;;;2.87;1.53;;;;;;;;;;5010194;28;20640;-70
2021/04/14 15:51:21;;;;;;;3.77;2.90;;;;;;;;;;5012681;28;20173;-71
2021/04/14 15:54:26;;;;;;;3.40;3.00;;;;;;;;;;4993213;28;20226;-70
2021/04/14 15:57:32;;;;;;;2.07;1.87;;;;;;;;;;4993315;28;20634;-70
2021/04/14 16:00:45;;;;;;;3.03;1.50;;;;;;;;;;4993228;28;20174;-70
2021/04/14 16:04:07;;;;;;;2.63;1.40;;;;;;;;;;4992957;28;20217;-70
2021/04/14 16:07:19;;;;;;;5.20;1.40;;;;;;;;;;4992887;28;20182;-70
2021/04/14 16:10:26;;;;;;;3.17;1.80;;;;;;;;;;4992563;28;20226;-70
2021/04/14 16:13:30;;;;;;;3.47;1.80;;;;;;;;;;4992765;28;20225;-70
2021/04/14 16:16:34;;;;;;;4.37;1.90;;;;;;;;;;4980711;28;20187;-70
2021/04/14 16:19:39;;;;;;;4.53;1.97;;;;;;;;;;4991817;28;20175;-70
2021/04/14 16:22:43;;;;;;;3.10;1.63;;;;;;;;;;4980435;28;20194;-70
2021/04/14 16:25:48;;;;;;;2.47;1.80;;;;;;;;;;4992564;28;20178;-70
2021/04/14 16:28:55;;;;;;;2.57;1.50;;;;;;;;;;4979966;28;20182;-70
2021/04/14 16:31:59;;;;;;;2.70;1.83;;;;;;;;;;4992371;28;20191;-70
2021/04/14 16:35:03;;;;;;;2.97;1.90;;;;;;;;;;4980252;28;20218;-70
2021/04/14 16:38:08;;;;;;;12.57;5.43;;;;;;;;;;4983677;28;20213;-71
2021/04/14 16:41:12;;;;;;;7.57;3.70;;;;;;;;;;5025987;28;20188;-70
2021/04/14 16:44:18;;;;;;;2.43;2.00;;;;;;;;;;5031563;28;20220;-70
2021/04/14 16:47:23;;;;;;;6.43;2.50;;;;;;;;;;5031705;28;20185;-70
2021/04/14 16:50:28;;;;;;;4.97;2.33;;;;;;;;;;5031250;28;20690;-70
2021/04/14 16:53:32;;;;;;;3.60;1.83;;;;;;;;;;5031042;28;20224;-70
2021/04/14 16:56:37;;;;;;;7.57;2.50;;;;;;;;;;5031726;28;20176;-70
2021/04/14 16:59:41;;;;;;;14.67;7.40;;;;;;;;;;5030266;28;20189;-70
2021/04/14 17:02:46;;;;;;;6.83;3.07;;;;;;;;;;5030615;28;20201;-70
2021/04/14 17:05:50;;;;;;;3.47;2.03;;;;;;;;;;5033720;28;20204;-71
2021/04/14 17:08:55;;;;;;;4.83;2.03;;;;;;;;;;5022217;28;20192;-71
2021/04/14 17:11:59;;;;;;;12.27;7.23;;;;;;;;;;5031096;28;20173;-71
2021/04/14 17:15:04;;;;;;;4.00;2.03;;;;;;;;;;5018419;28;20216;-71
2021/04/14 17:18:09;;;;;;;4.30;2.40;;;;;;;;;;5029624;28;20185;-71
2021/04/14 17:21:14;;;;;;;3.50;2.43;;;;;;;;;;5030433;28;20810;-71
2021/04/14 17:24:21;;;;;;;4.70;2.10;;;;;;;;;;5015983;28;20599;-72
2021/04/14 17:27:25;;;;;;;4.70;2.07;;;;;;;;;;5030393;28;20909;-71
2021/04/14 17:30:31;;;;;;;5.43;2.97;;;;;;;;;;5030383;28;20200;-71
2021/04/14 17:33:36;;;;;;;3.83;2.43;;;;;;;;;;5030405;28;20228;-70
2021/04/14 17:36:41;;;;;;;5.17;2.70;;;;;;;;;;5030743;28;20197;-71
2021/04/14 17:39:45;;;;;;;3.60;2.70;;;;;;;;;;5030443;28;20201;-71
2021/04/14 17:42:50;;;;;;;7.83;4.93;;;;;;;;;;5030226;28;20196;-71
2021/04/14 17:45:54;;;;;;;9.17;4.63;;;;;;;;;;5030527;28;20687;-70
2021/04/14 17:48:58;;;;;;;13.00;6.77;;;;;;;;;;5011589;28;20192;-71
2021/04/14 17:52:03;;;;;;;18.80;10.33;;;;;;;;;;5010711;28;20193;-71
2021/04/14 17:55:10;;;;;;;13.10;7.37;;;;;;;;;;5010489;28;20321;-71
2021/04/14 17:58:15;;;;;;;13.23;6.87;;;;;;;;;;5028599;28;20193;-70
2021/04/14 18:01:21;;;;;;;12.73;6.70;;;;;;;;;;5029889;28;20185;-71
2021/04/14 18:04:33;;;;;;;16.17;9.00;;;;;;;;;;5029679;28;20220;-71
2021/04/14 18:07:43;;;;;;;13.77;7.47;;;;;;;;;;5037564;28;20192;-70
2021/04/14 18:10:47;;;;;;;11.40;4.67;;;;;;;;;;5009771;28;20201;-70
2021/04/14 18:13:52;;;;;;;5.10;3.07;;;;;;;;;;5027269;28;20224;-70
2021/04/14 18:16:56;;;;;;;6.53;2.80;;;;;;;;;;5022711;28;20207;-70
2021/04/14 18:20:02;;;;;;;6.83;2.40;;;;;;;;;;5029995;28;20197;-70
2021/04/14 18:23:06;;;;;;;5.27;2.20;;;;;;;;;;5029811;28;20185;-71
2021/04/14 18:26:12;;;;;;;4.10;2.60;;;;;;;;;;5029806;28;20706;-71
2021/04/14 18:29:16;;;;;;;48.50;20.53;;;;;;;;;;5029333;28;20196;-71
2021/04/14 18:32:21;;;;;;;76.20;28.37;;;;;;;;;;5029857;28;20536;-71
2021/04/14 18:35:26;;;;;;;112.67;45.00;;;;;;;;;;5009266;28;20636;-71
2021/04/14 18:38:31;;;;;;;111.17;42.63;;;;;;;;;;5009882;28;20619;-71
2021/04/14 18:41:35;;;;;;;66.03;28.20;;;;;;;;;;5026127;28;20612;-71
2021/04/14 18:44:39;;;;;;;31.20;13.37;;;;;;;;;;5029236;28;20646;-71
2021/04/14 18:48:02;;;;;;;18.03;7.90;;;;;;;;;;5029700;28;20587;-71